createdAt,value
2018-07-09T00:01:44.019Z,2.80
2018-07-09T00:04:14.203Z,2.60
2018-07-09T00:06:44.043Z,3.00
2018-07-09T00:09:14.185Z,2.70
2018-07-09T00:11:44.313Z,3.17
2018-07-09T00:14:14.736Z,3.57
2018-07-09T00:16:45.131Z,2.57
2018-07-09T00:19:15.025Z,2.97
2018-07-09T00:21:45.191Z,2.80
2018-07-09T00:24:15.792Z,3.10
2018-07-09T00:26:45.996Z,3.00
2018-07-09T00:29:16.529Z,3.70
2018-07-09T00:31:46.780Z,2.73
2018-07-09T00:34:16.870Z,3.10
2018-07-09T00:36:47.053Z,2.87
2018-07-09T00:39:17.278Z,2.77
2018-07-09T00:41:47.703Z,2.97
2018-07-09T00:44:17.721Z,3.03
2018-07-09T00:46:48.012Z,3.47
2018-07-09T00:49:18.975Z,2.20
2018-07-09T00:51:49.534Z,3.07
2018-07-09T00:54:20.547Z,3.23
2018-07-09T00:56:51.408Z,3.77
2018-07-09T00:59:21.970Z,3.13
2018-07-09T01:01:52.429Z,2.90
2018-07-09T01:04:22.371Z,3.10
2018-07-09T01:06:52.447Z,3.30
2018-07-09T01:09:22.433Z,3.50
2018-07-09T01:12:02.290Z,3.10
2018-07-09T01:14:32.282Z,3.10
2018-07-09T01:17:07.746Z,3.43
2018-07-09T01:19:38.467Z,2.80
2018-07-09T01:22:08.855Z,3.07
2018-07-09T01:24:39.356Z,3.90
2018-07-09T01:27:09.729Z,3.10
2018-07-09T01:29:39.750Z,3.20
2018-07-09T01:32:09.778Z,3.10
2018-07-09T01:34:40.040Z,2.80
2018-07-09T01:37:10.391Z,3.00
2018-07-09T01:39:40.493Z,3.20
2018-07-09T01:42:10.965Z,3.00
2018-07-09T01:44:41.183Z,2.80
2018-07-09T01:47:11.694Z,3.47
2018-07-09T01:49:41.863Z,2.93
2018-07-09T01:52:12.837Z,2.87
2018-07-09T01:54:43.011Z,3.27
2018-07-09T01:57:13.446Z,2.63
2018-07-09T01:59:43.576Z,3.03
2018-07-09T02:02:14.174Z,2.60
2018-07-09T02:04:44.431Z,3.40
2018-07-09T02:07:14.685Z,3.23
2018-07-09T02:09:44.996Z,2.90
2018-07-09T02:12:15.540Z,2.97
2018-07-09T02:14:45.850Z,3.20
2018-07-09T02:17:15.882Z,3.10
2018-07-09T02:19:49.099Z,3.40
2018-07-09T02:22:19.405Z,3.40
2018-07-09T02:24:49.592Z,2.97
2018-07-09T02:27:19.798Z,3.07
2018-07-09T02:29:49.885Z,2.80
2018-07-09T02:32:20.091Z,3.70
2018-07-09T02:34:50.294Z,3.30
2018-07-09T02:37:20.233Z,3.20
2018-07-09T02:39:50.317Z,4.00
2018-07-09T02:42:20.361Z,3.23
2018-07-09T02:44:50.723Z,3.50
2018-07-09T02:47:20.698Z,3.43
2018-07-09T02:49:51.053Z,3.20
2018-07-09T02:52:21.039Z,3.40
2018-07-09T02:54:51.095Z,3.43
2018-07-09T02:57:21.950Z,3.40
2018-07-09T02:59:52.206Z,3.30
2018-07-09T03:02:22.338Z,3.60
2018-07-09T03:04:52.412Z,2.90
2018-07-09T03:07:23.429Z,3.70
2018-07-09T03:09:53.709Z,3.20
2018-07-09T03:12:24.575Z,3.87
2018-07-09T03:14:54.907Z,3.50
2018-07-09T03:17:24.987Z,3.33
2018-07-09T03:19:55.023Z,3.53
2018-07-09T03:22:25.191Z,3.17
2018-07-09T03:24:55.463Z,4.00
2018-07-09T03:27:26.231Z,3.60
2018-07-09T03:29:56.716Z,3.67
2018-07-09T03:32:27.436Z,3.53
2018-07-09T03:34:57.478Z,3.50
2018-07-09T03:37:27.765Z,3.40
2018-07-09T03:39:57.901Z,3.60
2018-07-09T03:42:28.247Z,3.80
2018-07-09T03:44:58.386Z,3.50
2018-07-09T03:47:28.490Z,3.83
2018-07-09T03:49:58.823Z,3.30
2018-07-09T03:52:28.903Z,3.27
2018-07-09T03:54:58.847Z,4.23
2018-07-09T03:57:29.236Z,3.70
2018-07-09T03:59:59.389Z,3.67
2018-07-09T04:02:29.617Z,3.33
2018-07-09T04:04:59.906Z,3.80
2018-07-09T04:07:30.090Z,3.20
2018-07-09T04:10:00.416Z,3.60
2018-07-09T04:12:30.732Z,3.47
2018-07-09T04:15:00.999Z,4.07
2018-07-09T04:17:31.281Z,3.90
2018-07-09T04:20:01.422Z,4.10
2018-07-09T04:22:31.835Z,3.67
2018-07-09T04:25:02.199Z,4.10
2018-07-09T04:27:32.560Z,3.20
2018-07-09T04:30:02.778Z,3.53
2018-07-09T04:32:33.021Z,3.73
2018-07-09T04:35:03.213Z,4.00
2018-07-09T04:37:33.730Z,3.60
2018-07-09T04:40:04.529Z,3.87
2018-07-09T04:42:34.851Z,3.87
2018-07-09T04:45:05.025Z,3.67
2018-07-09T04:47:35.242Z,3.67
2018-07-09T04:50:05.940Z,3.57
2018-07-09T04:52:36.154Z,3.37
2018-07-09T04:55:06.283Z,3.47
2018-07-09T04:57:37.142Z,3.53
2018-07-09T05:00:07.395Z,3.80
2018-07-09T05:02:37.533Z,3.50
2018-07-09T05:05:07.727Z,2.90
2018-07-09T05:07:38.209Z,3.77
2018-07-09T05:10:08.581Z,3.40
2018-07-09T05:12:38.892Z,3.80
2018-07-09T05:15:09.177Z,4.50
2018-07-09T05:17:39.701Z,3.90
2018-07-09T05:20:09.995Z,3.73
2018-07-09T05:22:40.652Z,3.60
2018-07-09T05:25:11.046Z,3.83
2018-07-09T05:27:41.363Z,4.10
2018-07-09T05:30:11.782Z,3.90
2018-07-09T05:32:41.998Z,3.40
2018-07-09T05:35:12.832Z,3.93
2018-07-09T05:37:43.113Z,3.40
2018-07-09T05:40:13.412Z,4.10
2018-07-09T05:42:43.895Z,3.73
2018-07-09T05:45:14.169Z,5.07
2018-07-09T05:47:44.485Z,3.90
2018-07-09T05:50:14.619Z,4.20
2018-07-09T05:52:44.801Z,3.20
2018-07-09T05:55:15.044Z,3.90
2018-07-09T05:57:45.344Z,3.70
2018-07-09T06:00:15.749Z,3.90
2018-07-09T06:02:45.939Z,3.83
2018-07-09T06:05:16.443Z,3.77
2018-07-09T06:07:46.660Z,3.60
2018-07-09T06:10:16.840Z,3.80
2018-07-09T06:12:47.242Z,3.30
2018-07-09T06:15:17.911Z,3.63
2018-07-09T06:17:48.622Z,3.80
2018-07-09T06:20:18.737Z,4.30
2018-07-09T06:22:50.010Z,4.13
2018-07-09T06:25:20.773Z,3.90
2018-07-09T06:27:51.489Z,4.23
2018-07-09T06:30:21.869Z,5.03
2018-07-09T06:32:52.362Z,3.40
2018-07-09T06:35:22.963Z,3.33
2018-07-09T06:37:53.636Z,4.33
2018-07-09T06:40:23.846Z,4.30
2018-07-09T06:42:54.887Z,4.20
2018-07-09T06:45:25.115Z,4.80
2018-07-09T06:47:55.585Z,4.23
2018-07-09T06:50:25.759Z,3.50
2018-07-09T06:52:57.505Z,3.83
2018-07-09T06:55:27.758Z,4.33
2018-07-09T06:57:58.107Z,4.03
2018-07-09T07:00:28.517Z,7.23
2018-07-09T07:02:58.813Z,3.90
2018-07-09T07:05:29.038Z,3.90
2018-07-09T07:07:59.936Z,3.90
2018-07-09T07:10:30.312Z,4.40
2018-07-09T07:13:00.973Z,5.03
2018-07-09T07:15:31.009Z,4.20
2018-07-09T07:18:02.453Z,4.10
2018-07-09T07:20:32.655Z,3.97
2018-07-09T07:23:03.328Z,3.93
2018-07-09T07:25:34.287Z,3.50
2018-07-09T07:28:04.526Z,3.80
2018-07-09T07:30:34.847Z,4.03
2018-07-09T07:33:05.037Z,4.37
2018-07-09T07:35:35.579Z,4.30
2018-07-09T07:38:06.304Z,4.10
2018-07-09T07:40:36.748Z,3.73
2018-07-09T07:43:07.842Z,3.83
2018-07-09T07:45:37.950Z,3.50
2018-07-09T07:48:08.472Z,4.50
2018-07-09T07:50:38.783Z,3.73
2018-07-09T07:53:09.264Z,4.13
2018-07-09T07:55:39.497Z,3.67
2018-07-09T07:58:09.688Z,4.30
2018-07-09T08:00:40.204Z,3.70
2018-07-09T08:03:11.831Z,4.00
2018-07-09T08:05:42.021Z,4.00
2018-07-09T08:08:12.289Z,4.00
2018-07-09T08:10:42.494Z,4.13
2018-07-09T08:13:27.983Z,3.63
2018-07-09T08:15:44.479Z,4.30
2018-07-09T08:18:14.983Z,4.30
2018-07-09T08:20:45.364Z,4.70
2018-07-09T08:23:15.887Z,4.57
2018-07-09T08:25:46.230Z,4.00
2018-07-09T08:28:16.443Z,3.70
2018-07-09T08:30:46.641Z,4.53
2018-07-09T08:33:17.268Z,4.30
2018-07-09T08:35:47.565Z,4.27
2018-07-09T08:38:17.827Z,4.03
2018-07-09T08:40:48.047Z,4.20
2018-07-09T08:55:33.697Z,4.40
2018-07-09T08:58:03.828Z,3.77
2018-07-09T09:00:33.878Z,4.40
2018-07-09T09:03:04.089Z,3.93
2018-07-09T09:05:34.205Z,4.50
2018-07-09T09:08:04.359Z,4.10
2018-07-09T09:10:40.394Z,3.83
2018-07-09T09:13:11.641Z,4.20
2018-07-09T09:15:41.934Z,4.17
2018-07-09T09:18:12.063Z,4.20
2018-07-09T09:20:42.309Z,4.60
2018-07-09T09:23:12.394Z,4.70
2018-07-09T09:25:42.698Z,3.60
2018-07-09T09:28:13.045Z,4.77
2018-07-09T09:30:43.189Z,4.00
2018-07-09T09:33:13.401Z,4.37
2018-07-09T09:35:43.541Z,4.20
2018-07-09T09:38:13.643Z,4.37
2018-07-09T09:40:44.077Z,5.43
2018-07-09T09:43:14.372Z,4.50
2018-07-09T09:45:45.218Z,4.00
2018-07-09T09:48:15.501Z,5.47
2018-07-09T09:50:45.516Z,4.20
2018-07-09T09:53:15.800Z,4.30
2018-07-09T09:55:46.146Z,3.93
2018-07-09T09:58:16.339Z,4.30
2018-07-09T10:00:50.759Z,4.40
2018-07-09T10:03:20.879Z,4.30
2018-07-09T10:05:51.026Z,4.10
2018-07-09T10:08:20.915Z,4.37
2018-07-09T10:10:51.248Z,4.27
2018-07-09T10:13:21.559Z,4.20
2018-07-09T10:15:51.902Z,4.20
2018-07-09T10:18:21.907Z,4.43
2018-07-09T10:20:52.164Z,4.23
2018-07-09T10:23:23.822Z,4.10
2018-07-09T10:25:54.313Z,4.30
2018-07-09T10:28:24.741Z,3.73
2018-07-09T10:30:55.801Z,4.10
2018-07-09T10:33:25.996Z,3.90
2018-07-09T10:35:56.456Z,4.30
2018-07-09T10:38:27.814Z,4.50
2018-07-09T10:40:58.139Z,4.60
2018-07-09T10:43:28.459Z,4.43
2018-07-09T10:45:58.781Z,4.53
2018-07-09T10:48:28.775Z,4.60
2018-07-09T10:50:59.054Z,4.30
2018-07-09T10:53:29.480Z,4.07
2018-07-09T10:55:59.711Z,4.40
2018-07-09T10:58:29.761Z,4.30
2018-07-09T11:01:00.811Z,3.80
2018-07-09T11:03:31.372Z,3.93
2018-07-09T11:06:01.481Z,4.70
2018-07-09T11:08:31.585Z,6.80
2018-07-09T11:11:01.774Z,3.80
2018-07-09T11:13:32.803Z,3.90
2018-07-09T11:16:03.144Z,3.30
2018-07-09T11:18:33.291Z,3.50
2018-07-09T11:21:04.495Z,4.00
2018-07-09T11:23:34.734Z,4.07
2018-07-09T11:26:04.893Z,4.57
2018-07-09T11:28:35.041Z,4.13
2018-07-09T11:31:05.052Z,3.97
2018-07-09T11:33:35.132Z,3.80
2018-07-09T11:36:05.831Z,3.57
2018-07-09T11:38:36.263Z,4.07
2018-07-09T11:41:06.246Z,4.20
2018-07-09T11:43:36.257Z,3.77
2018-07-09T11:46:06.225Z,3.80
2018-07-09T11:48:36.367Z,4.40
2018-07-09T11:51:06.591Z,3.80
2018-07-09T11:53:37.224Z,4.20
2018-07-09T11:56:07.457Z,4.23
2018-07-09T11:58:37.897Z,5.57
2018-07-09T12:01:08.322Z,4.43
2018-07-09T12:03:38.633Z,5.23
2018-07-09T12:06:08.912Z,4.93
2018-07-09T12:08:39.312Z,4.57
2018-07-09T12:11:09.624Z,4.73
2018-07-09T12:13:39.835Z,3.87
2018-07-09T12:16:10.148Z,4.63
2018-07-09T12:18:39.959Z,4.30
2018-07-09T12:21:10.116Z,4.03
2018-07-09T12:23:40.184Z,4.83
2018-07-09T12:26:11.296Z,4.93
2018-07-09T12:28:41.560Z,4.50
2018-07-09T12:31:11.805Z,4.00
2018-07-09T12:33:41.812Z,4.47
2018-07-09T12:36:12.211Z,4.90
2018-07-09T12:38:42.369Z,4.37
2018-07-09T12:41:12.498Z,4.20
2018-07-09T12:43:42.751Z,4.97
2018-07-09T12:46:13.016Z,4.20
2018-07-09T12:48:43.486Z,7.30
2018-07-09T12:51:13.510Z,4.53
2018-07-09T12:53:43.579Z,4.83
2018-07-09T12:56:13.722Z,5.10
2018-07-09T12:58:43.739Z,4.97
2018-07-09T13:01:14.402Z,4.90
2018-07-09T13:03:45.120Z,4.87
2018-07-09T13:06:14.838Z,4.20
2018-07-09T13:08:45.164Z,5.03
2018-07-09T13:11:15.380Z,5.20
2018-07-09T13:13:45.468Z,5.10
2018-07-09T13:16:15.690Z,4.80
2018-07-09T13:18:45.909Z,4.63
2018-07-09T13:21:16.118Z,4.73
2018-07-09T13:23:46.207Z,4.87
2018-07-09T13:26:16.545Z,4.13
2018-07-09T13:28:47.607Z,4.27
2018-07-09T13:31:17.659Z,5.47
2018-07-09T13:33:47.571Z,4.70
2018-07-09T13:36:18.332Z,4.50
2018-07-09T13:38:48.378Z,4.70
2018-07-09T13:41:18.601Z,4.77
2018-07-09T13:43:48.786Z,4.50
2018-07-09T13:46:18.926Z,4.73
2018-07-09T13:48:48.888Z,4.70
2018-07-09T13:51:19.650Z,4.43
2018-07-09T13:53:49.915Z,4.53
2018-07-09T13:56:20.071Z,4.87
2018-07-09T13:58:50.819Z,4.40
2018-07-09T14:01:20.964Z,4.50
2018-07-09T14:03:51.166Z,5.00
2018-07-09T14:06:21.880Z,5.10
2018-07-09T14:08:51.757Z,4.50
2018-07-09T14:11:21.740Z,4.70
2018-07-09T14:13:51.666Z,5.03
2018-07-09T14:16:21.718Z,4.53
2018-07-09T14:18:52.220Z,4.20
2018-07-09T14:21:22.613Z,4.57
2018-07-09T14:23:53.248Z,5.40
2018-07-09T14:26:24.191Z,4.87
2018-07-09T14:28:54.314Z,4.17
2018-07-09T14:31:24.550Z,4.77
2018-07-09T14:33:55.472Z,5.03
2018-07-09T14:36:25.746Z,4.33
2018-07-09T14:38:56.078Z,4.93
2018-07-09T14:41:26.139Z,4.80
2018-07-09T14:43:56.475Z,4.60
2018-07-09T14:46:26.611Z,4.57
2018-07-09T14:48:56.735Z,4.57
2018-07-09T14:51:26.792Z,4.50
2018-07-09T14:53:56.814Z,4.60
2018-07-09T14:56:26.591Z,4.70
2018-07-09T14:58:56.362Z,4.03
2018-07-09T15:01:26.240Z,4.50
2018-07-09T15:03:56.462Z,4.90
2018-07-09T15:06:26.575Z,4.40
2018-07-09T15:08:56.976Z,4.37
2018-07-09T15:11:26.905Z,4.03
2018-07-09T15:13:57.092Z,4.57
2018-07-09T15:16:27.118Z,4.07
2018-07-09T15:18:57.535Z,4.10
2018-07-09T15:21:28.062Z,3.70
2018-07-09T15:23:58.322Z,4.37
2018-07-09T15:26:29.135Z,4.40
2018-07-09T15:28:59.484Z,4.50
2018-07-09T15:31:29.642Z,4.57
2018-07-09T15:33:59.478Z,4.40
2018-07-09T15:36:29.362Z,4.20
2018-07-09T15:38:59.817Z,4.00
2018-07-09T15:41:30.006Z,4.70
2018-07-09T15:44:02.714Z,4.10
2018-07-09T15:46:32.753Z,4.03
2018-07-09T15:49:02.630Z,3.90
2018-07-09T15:51:38.717Z,5.20
2018-07-09T15:54:09.017Z,4.40
2018-07-09T15:56:38.857Z,4.10
2018-07-09T15:59:09.483Z,3.97
2018-07-09T16:01:39.514Z,4.50
2018-07-09T16:04:09.555Z,4.27
2018-07-09T16:06:39.751Z,4.30
2018-07-09T16:09:09.862Z,4.20
2018-07-09T16:11:40.039Z,4.73
2018-07-09T16:14:09.787Z,4.30
2018-07-09T16:16:39.568Z,4.60
2018-07-09T16:19:09.377Z,4.70
2018-07-09T16:21:39.487Z,3.93
2018-07-09T16:24:09.779Z,3.87
2018-07-09T16:26:39.760Z,4.23
2018-07-09T16:29:11.008Z,3.70
2018-07-09T16:31:40.838Z,4.40
2018-07-09T16:34:10.873Z,5.03
2018-07-09T16:36:41.042Z,4.67
2018-07-09T16:39:11.000Z,3.70
2018-07-09T16:41:40.819Z,3.50
2018-07-09T16:44:10.493Z,4.80
2018-07-09T16:46:40.979Z,4.50
2018-07-09T16:49:10.914Z,4.20
2018-07-09T16:51:40.988Z,4.73
2018-07-09T16:54:10.985Z,4.23
2018-07-09T16:56:40.930Z,5.10
2018-07-09T16:59:10.708Z,4.67
2018-07-09T17:01:40.919Z,4.80
2018-07-09T17:04:10.892Z,4.40
2018-07-09T17:06:40.768Z,4.77
2018-07-09T17:09:10.870Z,5.20
2018-07-09T17:11:40.929Z,5.17
2018-07-09T17:14:11.214Z,4.80
2018-07-09T17:16:41.194Z,5.20
2018-07-09T17:19:11.285Z,4.60
2018-07-09T17:21:42.939Z,4.90
2018-07-09T17:24:12.763Z,5.07
2018-07-09T17:26:42.561Z,4.90
2018-07-09T17:29:12.601Z,4.83
2018-07-09T17:31:42.648Z,4.07
2018-07-09T17:34:12.693Z,5.13
2018-07-09T17:36:42.656Z,4.30
2018-07-09T17:39:12.481Z,4.50
2018-07-09T17:41:42.396Z,4.80
2018-07-09T17:44:18.874Z,4.40
2018-07-09T17:46:48.975Z,5.10
2018-07-09T17:49:18.918Z,4.10
2018-07-09T17:51:48.888Z,3.83
2018-07-09T17:54:19.239Z,4.63
2018-07-09T17:56:49.602Z,4.40
2018-07-09T17:59:24.375Z,4.53
2018-07-09T18:01:56.652Z,4.20
2018-07-09T18:04:27.160Z,4.40
2018-07-09T18:06:57.199Z,4.30
2018-07-09T18:09:27.072Z,4.50
2018-07-09T18:11:57.195Z,4.40
2018-07-09T18:14:27.223Z,4.13
2018-07-09T18:16:57.211Z,4.70
2018-07-09T18:19:27.232Z,4.37
2018-07-09T18:21:57.585Z,4.73
2018-07-09T18:24:31.758Z,4.80
2018-07-09T18:27:01.675Z,4.90
2018-07-09T18:29:32.179Z,5.20
2018-07-09T18:32:02.604Z,5.33
2018-07-09T18:34:32.405Z,5.63
2018-07-09T18:37:02.466Z,5.30
2018-07-09T18:39:32.544Z,5.97
2018-07-09T18:42:02.594Z,4.20
2018-07-09T18:44:36.923Z,4.97
2018-07-09T18:47:07.009Z,4.87
2018-07-09T18:49:37.075Z,4.73
2018-07-09T18:52:07.212Z,5.27
2018-07-09T18:54:37.319Z,5.30
2018-07-09T18:57:07.635Z,5.20
2018-07-09T18:59:37.685Z,4.57
2018-07-09T19:02:08.679Z,5.77
2018-07-09T19:04:38.698Z,5.90
2018-07-09T19:07:10.235Z,5.17
2018-07-09T19:09:40.575Z,5.40
2018-07-09T19:12:11.140Z,5.27
2018-07-09T19:14:45.736Z,5.60
2018-07-09T19:17:55.170Z,5.40
2018-07-09T19:20:37.154Z,4.90
2018-07-09T19:23:06.773Z,5.33
2018-07-09T19:25:36.367Z,4.30
2018-07-09T19:28:06.527Z,5.67
2018-07-09T19:30:35.136Z,5.20
2018-07-09T19:33:03.845Z,5.17
2018-07-09T19:35:32.558Z,5.40
2018-07-09T19:38:01.309Z,5.30
2018-07-09T19:40:29.653Z,5.03
2018-07-09T19:42:58.399Z,5.27
2018-07-09T19:45:27.118Z,5.40
2018-07-09T19:47:55.895Z,4.83
2018-07-09T19:50:24.675Z,5.10
2018-07-09T19:52:53.408Z,5.23
2018-07-09T19:55:21.789Z,5.20
2018-07-09T19:57:50.503Z,4.90
2018-07-09T20:00:19.240Z,5.00
2018-07-09T20:02:47.951Z,5.80
2018-07-09T20:05:16.991Z,4.90
2018-07-09T20:07:45.628Z,4.80
2018-07-09T20:10:19.105Z,4.87
2018-07-09T20:12:52.982Z,6.07
2018-07-09T20:15:26.688Z,5.17
2018-07-09T20:17:55.360Z,5.20
2018-07-09T20:20:23.996Z,4.90
2018-07-09T20:22:53.049Z,5.10
2018-07-09T20:25:21.853Z,5.20
2018-07-09T20:27:54.161Z,4.90
2018-07-09T20:30:22.661Z,4.83
2018-07-09T20:32:51.388Z,4.90
2018-07-09T20:35:20.483Z,4.77
2018-07-09T20:37:49.359Z,4.83
2018-07-09T20:40:17.823Z,4.93
2018-07-09T20:42:46.403Z,5.30
2018-07-09T20:45:14.818Z,4.70
2018-07-09T20:47:43.332Z,5.50
2018-07-09T20:50:12.051Z,4.77
2018-07-09T20:52:40.733Z,5.67
2018-07-09T20:55:09.387Z,5.80
2018-07-09T20:57:37.988Z,4.87
2018-07-09T21:00:06.343Z,5.30
2018-07-09T21:02:34.840Z,5.10
2018-07-09T21:05:03.427Z,5.47
2018-07-09T21:07:32.115Z,6.07
2018-07-09T21:10:00.728Z,5.73
2018-07-09T21:12:29.433Z,5.60
2018-07-09T21:14:58.222Z,5.80
2018-07-09T21:17:27.061Z,5.60
2018-07-09T21:19:55.915Z,5.80
2018-07-09T21:22:24.705Z,4.83
2018-07-09T21:24:53.317Z,5.90
2018-07-09T21:27:21.794Z,4.90
2018-07-09T21:29:50.523Z,5.50
2018-07-09T21:32:18.804Z,5.40
2018-07-09T21:34:47.671Z,5.03
2018-07-09T21:37:16.125Z,5.53
2018-07-09T21:39:44.403Z,5.53
2018-07-09T21:42:12.790Z,5.70
2018-07-09T21:44:41.223Z,5.27
2018-07-09T21:47:09.713Z,5.10
2018-07-09T21:49:37.987Z,5.63
2018-07-09T21:52:06.655Z,4.30
2018-07-09T21:54:34.995Z,4.87
2018-07-09T21:57:03.421Z,5.37
2018-07-09T21:59:32.442Z,5.30
2018-07-09T22:02:00.793Z,4.50
2018-07-09T22:04:29.214Z,4.53
2018-07-09T22:06:57.625Z,4.67
2018-07-09T22:09:26.513Z,5.80
2018-07-09T22:11:54.960Z,4.70
2018-07-09T22:14:24.084Z,5.20
2018-07-09T22:16:52.473Z,6.03
2018-07-09T22:19:20.852Z,5.40
2018-07-09T22:21:49.228Z,5.33
2018-07-09T22:24:17.632Z,5.13
2018-07-09T22:26:45.918Z,5.17
2018-07-09T22:29:14.292Z,5.00
2018-07-09T22:31:44.307Z,5.60
2018-07-09T22:34:14.009Z,5.70
2018-07-09T22:36:43.809Z,5.57
2018-07-09T22:39:13.781Z,5.70
2018-07-09T22:41:43.732Z,5.50
2018-07-09T22:44:18.794Z,5.30
2018-07-09T22:46:48.836Z,5.10
2018-07-09T22:49:18.839Z,5.50
2018-07-09T22:51:48.923Z,5.80
2018-07-09T22:54:18.732Z,5.30
2018-07-09T22:56:49.644Z,5.20
2018-07-09T22:59:19.505Z,6.07
2018-07-09T23:01:49.320Z,6.20
2018-07-09T23:04:20.158Z,6.77
2018-07-09T23:06:50.382Z,5.70
2018-07-09T23:10:29.060Z,6.67
2018-07-09T23:13:24.803Z,6.33
2018-07-09T23:17:09.550Z,5.90
2018-07-09T23:20:04.340Z,4.93
2018-07-09T23:22:32.773Z,5.40
2018-07-09T23:25:01.201Z,5.57
2018-07-09T23:27:29.554Z,5.33
2018-07-09T23:29:58.021Z,5.57
2018-07-09T23:32:27.302Z,5.20
2018-07-09T23:34:56.496Z,6.20
2018-07-09T23:37:25.077Z,6.00
2018-07-09T23:39:53.772Z,5.30
2018-07-09T23:42:22.200Z,5.30
2018-07-09T23:44:50.824Z,5.27
2018-07-09T23:47:19.450Z,5.10
2018-07-09T23:49:47.869Z,5.33
2018-07-09T23:52:16.515Z,5.00
2018-07-09T23:54:45.190Z,5.13
2018-07-09T23:59:43.837Z,5.03
